Time;durP1;ratioP1;P1;durP2;ratioP2;P2;SDS_P1;SDS_P2;PMS_P1;PMS_P2;Temp;Humidity;BMP_temperature;BMP_pressure;BME280_temperature;BME280_humidity;BME280_pressure;Samples;Min_cycle;Max_cycle;Signal;HPM_P1;HPM_P2
2024/04/10 00:00:22;;;;;;;2.60;1.53;;;6.70;99.90;;;;;;484334;245;27791;-72
2024/04/10 00:02:23;;;;;;;2.93;1.43;;;6.70;99.90;;;;;;484299;245;28074;-72
2024/04/10 00:04:24;;;;;;;1.67;1.40;;;6.70;99.90;;;;;;484290;245;28367;-72
2024/04/10 00:06:25;;;;;;;1.40;1.30;;;6.60;99.90;;;;;;484293;245;28419;-72
2024/04/10 00:08:26;;;;;;;1.87;1.40;;;6.70;99.90;;;;;;484332;245;28303;-72
2024/04/10 00:10:28;;;;;;;1.87;1.50;;;6.70;99.90;;;;;;484321;245;28289;-71
2024/04/10 00:12:29;;;;;;;2.67;1.57;;;6.80;99.90;;;;;;484281;245;28573;-72
2024/04/10 00:14:32;;;;;;;6.63;1.90;;;6.70;99.90;;;;;;484304;245;27462;-72
2024/04/10 00:16:31;;;;;;;2.73;1.30;;;6.70;99.90;;;;;;484216;242;27944;-72
2024/04/10 00:18:33;;;;;;;4.33;1.63;;;6.60;99.90;;;;;;484340;245;27876;-73
2024/04/10 00:20:34;;;;;;;8.80;1.80;;;6.60;99.90;;;;;;484342;245;28090;-71
2024/04/10 00:22:35;;;;;;;2.40;1.27;;;6.60;99.90;;;;;;484320;245;27992;-72
2024/04/10 00:24:37;;;;;;;3.17;1.60;;;6.50;99.90;;;;;;484314;245;28030;-72
2024/04/10 00:26:38;;;;;;;4.00;1.63;;;6.50;99.90;;;;;;484328;245;27816;-71
2024/04/10 00:28:39;;;;;;;2.30;1.20;;;6.50;99.90;;;;;;484341;245;27992;-71
2024/04/10 00:30:40;;;;;;;3.50;1.30;;;6.50;99.90;;;;;;484343;245;28119;-72
2024/04/10 00:32:41;;;;;;;2.47;1.10;;;6.50;99.90;;;;;;484318;245;27620;-72
2024/04/10 00:34:43;;;;;;;2.97;1.27;;;6.50;99.90;;;;;;484351;245;28140;-71
2024/04/10 00:36:44;;;;;;;2.60;1.60;;;6.50;99.90;;;;;;484374;245;27822;-72
2024/04/10 00:38:45;;;;;;;4.90;1.40;;;6.40;99.90;;;;;;484237;245;27859;-72
2024/04/10 00:40:46;;;;;;;1.33;1.20;;;6.40;99.90;;;;;;484358;245;27912;-71
2024/04/10 00:42:48;;;;;;;5.07;1.40;;;6.40;99.90;;;;;;484313;245;28152;-73
2024/04/10 00:44:49;;;;;;;3.27;1.60;;;6.40;99.90;;;;;;484313;245;28274;-71
2024/04/10 00:46:50;;;;;;;4.37;1.87;;;6.40;99.90;;;;;;484293;245;28270;-72
2024/04/10 00:48:51;;;;;;;6.23;1.77;;;6.40;99.90;;;;;;484303;245;28533;-72
2024/04/10 00:50:53;;;;;;;3.13;2.13;;;6.40;99.90;;;;;;484295;245;28759;-71
2024/04/10 00:52:54;;;;;;;1.40;1.27;;;6.40;99.90;;;;;;484299;245;28433;-72
2024/04/10 00:54:55;;;;;;;8.40;1.80;;;6.40;99.90;;;;;;484341;245;27623;-72
2024/04/10 00:56:56;;;;;;;3.63;1.47;;;6.40;99.90;;;;;;484335;245;27958;-71
2024/04/10 00:58:59;;;;;;;4.50;1.63;;;6.50;99.90;;;;;;484324;245;27942;-71
2024/04/10 01:00:59;;;;;;;3.60;1.60;;;6.50;99.90;;;;;;484178;245;27993;-72
2024/04/10 01:03:00;;;;;;;5.33;1.70;;;6.50;99.90;;;;;;484336;245;27740;-71
2024/04/10 01:05:01;;;;;;;2.60;1.40;;;6.60;99.90;;;;;;484335;245;28011;-73
2024/04/10 01:07:03;;;;;;;3.60;1.73;;;6.60;99.90;;;;;;484320;245;27949;-72
2024/04/10 01:09:05;;;;;;;2.73;1.67;;;6.60;99.90;;;;;;484342;245;28094;-72
2024/04/10 01:11:05;;;;;;;3.90;1.33;;;6.60;99.90;;;;;;484253;245;27681;-71
2024/04/10 01:13:06;;;;;;;4.03;1.67;;;6.60;99.90;;;;;;484331;245;27588;-72
2024/04/10 01:15:08;;;;;;;1.90;1.43;;;6.80;99.90;;;;;;484340;245;27859;-72
2024/04/10 01:17:09;;;;;;;4.67;1.77;;;6.70;99.90;;;;;;484310;245;27595;-71
2024/04/10 01:19:10;;;;;;;5.20;1.87;;;6.70;99.90;;;;;;484176;245;28141;-72
2024/04/10 01:21:11;;;;;;;11.83;3.70;;;6.70;99.90;;;;;;484313;245;27949;-72
2024/04/10 01:23:13;;;;;;;13.80;2.47;;;6.70;99.90;;;;;;484344;245;28406;-72
2024/04/10 01:25:14;;;;;;;5.70;1.80;;;6.70;99.90;;;;;;484331;245;28357;-72
2024/04/10 01:27:15;;;;;;;3.60;1.50;;;6.60;99.90;;;;;;484346;245;28509;-70
2024/04/10 01:29:16;;;;;;;4.60;2.10;;;6.50;99.90;;;;;;484302;245;28543;-72
2024/04/10 01:31:18;;;;;;;2.73;1.53;;;6.50;99.90;;;;;;484351;245;28070;-73
2024/04/10 01:33:19;;;;;;;4.03;1.60;;;6.40;99.90;;;;;;484313;245;27857;-72
2024/04/10 01:35:20;;;;;;;5.37;1.80;;;6.40;99.90;;;;;;484300;245;27631;-71
2024/04/10 01:37:22;;;;;;;3.00;1.53;;;6.40;99.90;;;;;;484288;245;28056;-71
2024/04/10 01:39:23;;;;;;;3.20;1.60;;;6.40;99.90;;;;;;484318;245;27837;-71
2024/04/10 01:41:24;;;;;;;3.83;1.67;;;6.50;99.90;;;;;;484341;245;27998;-73
2024/04/10 01:43:25;;;;;;;6.83;1.83;;;6.50;99.90;;;;;;484193;245;27952;-71
2024/04/10 01:45:26;;;;;;;5.40;1.87;;;6.50;99.90;;;;;;484304;245;28094;-71
2024/04/10 01:47:28;;;;;;;3.27;1.87;;;6.60;99.90;;;;;;484242;245;28096;-72
2024/04/10 01:49:29;;;;;;;4.60;1.57;;;6.60;99.90;;;;;;484328;245;27845;-72
2024/04/10 01:51:30;;;;;;;6.60;1.60;;;6.60;99.90;;;;;;484301;245;28144;-72
2024/04/10 01:53:31;;;;;;;4.97;2.63;;;6.60;99.90;;;;;;484297;245;27921;-71
2024/04/10 01:55:33;;;;;;;6.93;1.77;;;6.50;99.90;;;;;;484267;245;27993;-71
2024/04/10 01:57:34;;;;;;;1.50;1.40;;;6.50;99.90;;;;;;484302;245;28131;-71
2024/04/10 01:59:35;;;;;;;5.57;1.60;;;6.40;99.90;;;;;;484379;245;27519;-71
2024/04/10 02:01:37;;;;;;;1.90;1.40;;;6.30;99.90;;;;;;484332;245;28482;-72
2024/04/10 02:03:38;;;;;;;3.00;1.70;;;6.20;99.90;;;;;;484316;245;28583;-72
2024/04/10 02:05:40;;;;;;;3.13;1.30;;;6.20;99.90;;;;;;484296;245;28554;-72
2024/04/10 02:07:40;;;;;;;6.00;1.77;;;6.20;99.90;;;;;;484323;245;28499;-73
2024/04/10 02:09:41;;;;;;;2.60;1.50;;;6.20;99.90;;;;;;484332;245;28485;-72
2024/04/10 02:11:43;;;;;;;1.83;1.30;;;6.20;99.90;;;;;;484332;245;27885;-72
2024/04/10 02:13:44;;;;;;;4.67;1.90;;;6.10;99.90;;;;;;484320;245;27991;-72
2024/04/10 02:15:45;;;;;;;4.20;2.23;;;6.10;99.90;;;;;;484288;245;28000;-72
2024/04/10 02:17:46;;;;;;;6.03;1.87;;;6.00;99.90;;;;;;484359;245;28079;-73
2024/04/10 02:19:48;;;;;;;3.27;1.80;;;6.10;99.90;;;;;;484328;245;28148;-72
2024/04/10 02:21:49;;;;;;;7.73;2.30;;;6.00;99.90;;;;;;484345;245;27980;-70
2024/04/10 02:23:50;;;;;;;4.13;1.93;;;6.00;99.90;;;;;;484316;245;27828;-72
2024/04/10 02:25:51;;;;;;;2.47;1.70;;;5.90;99.90;;;;;;484241;245;28183;-72
2024/04/10 02:27:53;;;;;;;3.27;1.83;;;5.90;99.90;;;;;;484333;245;27913;-72
2024/04/10 02:29:54;;;;;;;6.30;2.57;;;5.90;99.90;;;;;;484280;245;28007;-71
2024/04/10 02:31:55;;;;;;;7.10;1.97;;;5.90;99.90;;;;;;484208;245;27506;-72
2024/04/10 02:33:56;;;;;;;9.10;2.40;;;5.90;99.90;;;;;;484274;245;27804;-72
2024/04/10 02:35:58;;;;;;;4.03;1.60;;;5.90;99.90;;;;;;484366;245;27712;-70
2024/04/10 02:37:59;;;;;;;5.40;1.67;;;5.90;99.90;;;;;;484336;245;28170;-72
2024/04/10 02:40:00;;;;;;;3.03;1.87;;;5.80;99.90;;;;;;484288;245;28491;-72
2024/04/10 02:42:01;;;;;;;8.63;2.40;;;5.80;99.90;;;;;;484290;245;28470;-72
2024/04/10 02:44:03;;;;;;;2.53;1.33;;;5.80;99.90;;;;;;484300;245;29565;-73
2024/04/10 02:46:05;;;;;;;6.00;2.40;;;5.80;99.90;;;;;;484330;245;27604;-72
2024/04/10 02:48:05;;;;;;;6.10;1.90;;;5.80;99.90;;;;;;484237;245;27536;-72
2024/04/10 02:50:06;;;;;;;6.43;2.50;;;5.80;99.90;;;;;;484313;245;27940;-72
2024/04/10 02:52:08;;;;;;;4.30;1.80;;;5.70;99.90;;;;;;484295;245;28082;-71
2024/04/10 02:54:09;;;;;;;4.75;2.08;;;5.70;99.90;;;;;;484336;245;28868;-72
2024/04/10 02:56:10;;;;;;;8.33;2.20;;;5.70;99.90;;;;;;484310;245;27454;-71
2024/04/10 02:58:11;;;;;;;5.30;2.03;;;5.60;99.90;;;;;;484305;245;28035;-72
2024/04/10 03:00:14;;;;;;;4.30;1.95;;;5.60;99.90;;;;;;484328;245;28060;-71
2024/04/10 03:02:14;;;;;;;5.00;1.97;;;5.60;99.90;;;;;;484263;245;28018;-72
2024/04/10 03:04:15;;;;;;;2.90;1.93;;;5.60;99.90;;;;;;484331;245;29064;-73
2024/04/10 03:06:16;;;;;;;3.60;1.77;;;5.70;99.90;;;;;;484331;245;28024;-71
2024/04/10 03:08:18;;;;;;;3.33;1.90;;;5.60;99.90;;;;;;484257;245;29350;-72
2024/04/10 03:10:19;;;;;;;4.20;2.13;;;5.60;99.90;;;;;;484290;245;27695;-72
2024/04/10 03:12:20;;;;;;;4.93;1.80;;;5.60;99.90;;;;;;484336;245;28073;-71
2024/04/10 03:14:21;;;;;;;6.93;2.00;;;5.60;99.90;;;;;;484312;245;27989;-73
2024/04/10 03:16:23;;;;;;;5.05;2.33;;;5.50;99.90;;;;;;484319;242;27461;-71
2024/04/10 03:18:24;;;;;;;2.70;1.70;;;5.50;99.90;;;;;;484310;245;27636;-72
2024/04/10 03:20:26;;;;;;;7.80;2.10;;;5.50;99.90;;;;;;484345;245;27536;-72
2024/04/10 03:22:26;;;;;;;7.10;3.30;;;5.50;99.90;;;;;;484289;245;28025;-72
2024/04/10 03:24:28;;;;;;;6.22;2.75;;;5.50;99.90;;;;;;484215;245;29423;-72
2024/04/10 03:26:29;;;;;;;5.25;2.10;;;5.50;99.90;;;;;;484246;245;27565;-71
2024/04/10 03:28:30;;;;;;;3.95;1.85;;;5.40;99.90;;;;;;484278;245;27515;-71
2024/04/10 03:30:35;;;;;;;5.37;2.30;;;5.40;99.90;;;;;;484256;245;27519;-72
2024/04/10 03:32:33;;;;;;;7.68;2.28;;;5.40;99.90;;;;;;484058;245;28806;-71
2024/04/10 03:34:34;;;;;;;7.53;2.70;;;5.40;99.90;;;;;;484273;245;27616;-71
2024/04/10 03:36:35;;;;;;;2.97;2.00;;;5.40;99.90;;;;;;484267;245;28529;-72
2024/04/10 03:38:37;;;;;;;5.20;1.90;;;5.40;99.90;;;;;;484256;245;28394;-72
2024/04/10 03:40:38;;;;;;;6.12;2.47;;;5.40;99.90;;;;;;484254;245;27993;-72
2024/04/10 03:42:39;;;;;;;5.30;2.20;;;5.30;99.90;;;;;;484286;245;28171;-71
2024/04/10 03:44:40;;;;;;;3.62;2.40;;;5.30;99.90;;;;;;484304;245;29537;-71
2024/04/10 03:46:42;;;;;;;6.12;2.70;;;5.30;99.90;;;;;;484344;245;27514;-73
2024/04/10 03:48:43;;;;;;;2.85;2.30;;;5.20;99.90;;;;;;484331;245;27498;-70
2024/04/10 03:50:44;;;;;;;4.25;2.00;;;5.10;99.90;;;;;;484323;245;27607;-72
2024/04/10 03:52:45;;;;;;;4.57;1.90;;;5.10;99.90;;;;;;484278;242;27561;-72
2024/04/10 03:54:47;;;;;;;5.18;2.17;;;5.10;99.90;;;;;;484319;245;27985;-72
2024/04/10 03:56:48;;;;;;;8.70;3.00;;;5.10;99.90;;;;;;484319;245;27509;-72
2024/04/10 03:58:49;;;;;;;4.22;2.03;;;5.00;99.90;;;;;;484309;245;27467;-71
2024/04/10 04:00:50;;;;;;;4.45;1.92;;;5.00;99.90;;;;;;484286;245;27506;-72
2024/04/10 04:02:52;;;;;;;4.00;2.12;;;5.10;99.90;;;;;;484272;245;27469;-72
2024/04/10 04:04:53;;;;;;;4.00;1.83;;;5.10;99.90;;;;;;484328;245;27471;-72
2024/04/10 04:06:55;;;;;;;5.85;2.22;;;5.00;99.90;;;;;;484298;245;28128;-73
2024/04/10 04:08:55;;;;;;;4.00;1.77;;;4.90;99.90;;;;;;484339;245;28004;-72
2024/04/10 04:10:57;;;;;;;3.58;2.15;;;4.90;99.90;;;;;;484302;245;27503;-71
2024/04/10 04:12:58;;;;;;;6.50;2.05;;;4.90;99.90;;;;;;484328;245;27532;-72
2024/04/10 04:14:59;;;;;;;4.32;1.85;;;4.80;99.90;;;;;;484297;245;27554;-71
2024/04/10 04:17:00;;;;;;;3.30;2.03;;;4.90;99.90;;;;;;484322;245;27509;-72
2024/04/10 04:19:02;;;;;;;3.40;1.98;;;4.90;99.90;;;;;;484316;245;28875;-71
2024/04/10 04:21:03;;;;;;;3.47;2.35;;;4.90;99.90;;;;;;484368;245;27937;-72
2024/04/10 04:23:04;;;;;;;4.20;2.37;;;4.90;99.90;;;;;;484327;245;27969;-73
2024/04/10 04:25:05;;;;;;;5.30;2.10;;;4.90;99.90;;;;;;484347;245;27581;-72
2024/04/10 04:27:08;;;;;;;8.93;2.33;;;4.80;99.90;;;;;;484341;245;27588;-72
2024/04/10 04:29:08;;;;;;;4.62;2.10;;;4.80;99.90;;;;;;484276;245;27612;-72
2024/04/10 04:31:09;;;;;;;4.43;1.70;;;4.90;99.90;;;;;;484355;245;27475;-72
2024/04/10 04:33:11;;;;;;;3.37;2.08;;;4.80;99.90;;;;;;484340;245;27517;-72
2024/04/10 04:35:12;;;;;;;3.37;1.65;;;4.80;99.90;;;;;;484344;245;27929;-71
2024/04/10 04:37:13;;;;;;;2.95;2.08;;;4.80;99.90;;;;;;484339;245;28033;-71
2024/04/10 04:39:15;;;;;;;6.78;2.40;;;4.70;99.90;;;;;;484359;245;27517;-73
2024/04/10 04:41:16;;;;;;;18.40;3.10;;;4.60;99.90;;;;;;484345;245;27489;-71
2024/04/10 04:43:17;;;;;;;4.75;2.55;;;4.60;99.90;;;;;;484328;245;27603;-71
2024/04/10 04:45:18;;;;;;;7.45;2.33;;;4.60;99.90;;;;;;484310;245;27485;-71
2024/04/10 04:47:19;;;;;;;5.03;2.60;;;4.60;99.90;;;;;;484339;245;27513;-72
2024/04/10 04:49:21;;;;;;;7.10;2.28;;;4.70;99.90;;;;;;484349;245;28149;-72
2024/04/10 04:51:22;;;;;;;6.57;2.72;;;4.70;99.90;;;;;;484301;245;27926;-71
2024/04/10 04:53:23;;;;;;;9.90;2.70;;;4.70;99.90;;;;;;484300;245;27542;-72
2024/04/10 04:55:25;;;;;;;6.82;2.58;;;4.70;99.90;;;;;;484172;245;27512;-71
2024/04/10 04:57:26;;;;;;;7.60;2.83;;;4.80;99.90;;;;;;484227;245;27557;-72
2024/04/10 04:59:27;;;;;;;4.53;2.35;;;4.90;99.90;;;;;;484187;245;27525;-72
2024/04/10 05:01:28;;;;;;;2.62;2.20;;;4.90;99.90;;;;;;484256;245;27544;-71
2024/04/10 05:05:49;;;;;;;7.65;2.60;;;5.00;99.90;;;;;;484220;245;27591;-72
2024/04/10 05:07:51;;;;;;;4.85;2.20;;;5.00;99.90;;;;;;484266;245;27494;-72
2024/04/10 05:09:52;;;;;;;4.22;2.00;;;5.00;99.90;;;;;;484287;245;27930;-71
2024/04/10 05:11:53;;;;;;;6.00;2.30;;;4.90;99.90;;;;;;484299;245;28054;-71
2024/04/10 05:13:54;;;;;;;6.45;2.67;;;4.90;99.90;;;;;;484286;245;27491;-71
2024/04/10 05:15:56;;;;;;;4.40;2.12;;;4.90;99.90;;;;;;484148;245;27589;-72
2024/04/10 05:17:57;;;;;;;4.95;2.00;;;5.00;99.90;;;;;;484318;245;27539;-73
2024/04/10 05:19:58;;;;;;;5.43;2.20;;;4.90;99.90;;;;;;484294;245;27482;-72
2024/04/10 05:21:59;;;;;;;6.03;2.00;;;4.90;99.90;;;;;;484293;245;27522;-72
2024/04/10 05:24:01;;;;;;;5.05;2.10;;;4.80;99.90;;;;;;484278;245;27918;-71
2024/04/10 05:26:02;;;;;;;6.60;2.20;;;4.90;99.90;;;;;;484338;245;27934;-71
2024/04/10 05:28:03;;;;;;;6.72;2.12;;;5.00;99.90;;;;;;484313;245;28868;-72
2024/04/10 05:30:07;;;;;;;3.25;1.80;;;5.10;99.90;;;;;;484336;245;27590;-71
2024/04/10 05:32:06;;;;;;;5.28;2.30;;;5.00;99.90;;;;;;484160;245;27546;-72
2024/04/10 05:34:07;;;;;;;3.10;2.25;;;5.00;99.90;;;;;;484313;245;27517;-72
2024/04/10 05:36:09;;;;;;;8.98;2.45;;;5.00;99.90;;;;;;484315;245;27475;-72
2024/04/10 05:38:09;;;;;;;4.25;1.95;;;5.00;99.90;;;;;;484308;245;28050;-71
2024/04/10 05:40:16;;;;;;;4.28;2.28;;;5.00;99.90;;;;;;484303;245;27920;-71
2024/04/10 05:42:12;;;;;;;3.53;1.70;;;5.00;99.90;;;;;;483968;245;27495;-72
2024/04/10 05:44:13;;;;;;;3.28;2.00;;;5.00;99.90;;;;;;484363;245;27542;-72
2024/04/10 05:46:14;;;;;;;4.20;3.08;;;5.00;99.90;;;;;;484308;245;27626;-71
2024/04/10 05:48:16;;;;;;;10.38;2.87;;;5.00;99.90;;;;;;484315;245;27513;-72
2024/04/10 05:50:17;;;;;;;3.35;2.30;;;5.00;99.90;;;;;;484242;245;28769;-72
2024/04/10 05:52:18;;;;;;;7.62;2.17;;;5.10;99.90;;;;;;484334;245;28032;-72
2024/04/10 05:54:19;;;;;;;8.23;3.00;;;5.10;99.90;;;;;;484300;245;27616;-73
2024/04/10 05:56:21;;;;;;;5.28;2.35;;;5.20;99.90;;;;;;484297;245;27557;-71
2024/04/10 05:58:22;;;;;;;4.37;2.28;;;5.20;99.90;;;;;;484287;245;27522;-72
2024/04/10 06:00:23;;;;;;;3.63;2.27;;;5.30;99.90;;;;;;484332;245;27547;-72
2024/04/10 06:02:26;;;;;;;4.20;1.93;;;5.30;99.90;;;;;;484331;245;27795;-72
2024/04/10 06:04:26;;;;;;;5.62;2.12;;;5.30;99.90;;;;;;484174;245;28884;-72
2024/04/10 06:06:27;;;;;;;3.08;1.90;;;5.30;99.90;;;;;;484177;245;27954;-72
2024/04/10 06:08:28;;;;;;;2.90;2.12;;;5.30;99.90;;;;;;484289;245;28039;-71
2024/04/10 06:10:30;;;;;;;3.62;1.80;;;5.30;99.90;;;;;;484216;245;27522;-72
2024/04/10 06:12:31;;;;;;;4.72;2.25;;;5.30;99.90;;;;;;484323;245;27458;-72
2024/04/10 06:14:32;;;;;;;3.87;2.35;;;5.40;99.90;;;;;;484309;245;27532;-72
2024/04/10 06:16:33;;;;;;;5.37;2.62;;;5.40;99.90;;;;;;484297;245;27544;-71
2024/04/10 06:18:35;;;;;;;3.60;1.85;;;5.50;99.90;;;;;;484314;245;27964;-72
2024/04/10 06:20:36;;;;;;;4.47;2.50;;;5.50;99.90;;;;;;484283;245;28008;-72
2024/04/10 06:22:37;;;;;;;4.27;2.40;;;5.60;99.90;;;;;;484275;245;27629;-72
2024/04/10 06:24:38;;;;;;;5.25;1.90;;;5.60;99.90;;;;;;484281;245;28163;-72
2024/04/10 06:26:40;;;;;;;9.10;2.55;;;5.70;99.90;;;;;;484309;245;27545;-71
2024/04/10 06:28:41;;;;;;;7.47;2.12;;;5.80;99.90;;;;;;484336;245;27463;-72
2024/04/10 06:30:43;;;;;;;6.37;1.97;;;5.90;99.90;;;;;;484313;245;27538;-71
2024/04/10 06:32:43;;;;;;;5.53;2.20;;;6.00;99.90;;;;;;484283;245;27933;-71
2024/04/10 06:34:45;;;;;;;3.30;2.20;;;6.10;99.90;;;;;;484275;245;28614;-73
2024/04/10 06:36:46;;;;;;;9.67;2.70;;;6.30;99.90;;;;;;484309;245;28588;-71
2024/04/10 06:38:47;;;;;;;8.20;2.20;;;6.30;99.90;;;;;;484277;245;28516;-72
2024/04/10 06:40:49;;;;;;;8.53;3.03;;;6.40;99.90;;;;;;484306;245;28456;-72
2024/04/10 06:42:50;;;;;;;5.17;2.40;;;6.40;99.90;;;;;;484307;245;28387;-72
2024/04/10 06:44:51;;;;;;;7.90;2.67;;;6.40;99.90;;;;;;484295;245;28654;-71
2024/04/10 06:46:52;;;;;;;5.37;2.40;;;6.40;99.90;;;;;;484313;245;28213;-72
2024/04/10 06:48:53;;;;;;;5.40;2.50;;;6.30;99.90;;;;;;484281;245;27652;-72
2024/04/10 06:50:55;;;;;;;6.43;2.20;;;6.30;99.90;;;;;;484288;245;28107;-72
2024/04/10 06:52:56;;;;;;;4.73;2.60;;;6.20;99.90;;;;;;484310;245;28146;-72
2024/04/10 06:54:57;;;;;;;8.40;2.63;;;6.20;99.90;;;;;;484335;245;27943;-71
2024/04/10 06:56:58;;;;;;;5.43;2.57;;;6.20;99.90;;;;;;484336;245;27853;-72
2024/04/10 06:59:00;;;;;;;3.57;1.87;;;6.20;99.90;;;;;;484323;245;27944;-72
2024/04/10 07:01:05;;;;;;;11.73;3.60;;;6.30;99.90;;;;;;484295;245;28092;-72
2024/04/10 07:03:02;;;;;;;8.83;2.40;;;6.40;99.90;;;;;;484102;245;28501;-73
2024/04/10 07:05:04;;;;;;;7.17;3.27;;;6.40;99.90;;;;;;484335;245;27923;-72
2024/04/10 07:07:05;;;;;;;6.50;2.53;;;6.40;99.90;;;;;;484316;245;27962;-72
2024/04/10 07:09:08;;;;;;;5.60;2.60;;;6.50;99.90;;;;;;484305;245;27890;-72
2024/04/10 07:11:16;;;;;;;6.23;2.93;;;6.50;99.90;;;;;;484109;245;28083;-72
2024/04/10 07:13:08;;;;;;;12.40;2.77;;;6.60;99.90;;;;;;483845;245;28230;-72
2024/04/10 07:15:10;;;;;;;7.60;3.07;;;6.60;99.90;;;;;;484328;245;28515;-71
2024/04/10 07:17:11;;;;;;;5.93;2.33;;;6.60;99.90;;;;;;484318;245;28445;-72
2024/04/10 07:19:12;;;;;;;7.10;2.40;;;6.70;99.90;;;;;;484308;245;28402;-71
2024/04/10 07:21:13;;;;;;;4.93;2.30;;;6.80;99.90;;;;;;484263;245;28222;-72
2024/04/10 07:23:15;;;;;;;8.77;2.30;;;6.80;99.90;;;;;;484335;245;27856;-73
2024/04/10 07:25:16;;;;;;;7.30;2.33;;;6.80;99.90;;;;;;484302;245;28094;-72
2024/04/10 07:27:17;;;;;;;4.60;2.00;;;6.80;99.90;;;;;;484296;245;27906;-72
2024/04/10 07:29:18;;;;;;;8.43;2.70;;;6.90;99.90;;;;;;484298;245;28060;-71
2024/04/10 07:31:23;;;;;;;4.50;2.73;;;7.00;99.90;;;;;;484342;245;27846;-72
2024/04/10 07:33:24;;;;;;;7.30;2.60;;;7.10;99.90;;;;;;484309;245;27955;-72
2024/04/10 07:35:25;;;;;;;6.93;2.63;;;7.20;99.90;;;;;;484316;245;27636;-73
2024/04/10 07:37:26;;;;;;;5.83;2.63;;;7.20;99.90;;;;;;484339;245;27555;-71
2024/04/10 07:39:28;;;;;;;8.40;2.47;;;7.40;99.90;;;;;;484301;245;27938;-71
2024/04/10 07:41:29;;;;;;;8.20;2.63;;;7.50;99.90;;;;;;484319;245;28009;-73
2024/04/10 07:43:30;;;;;;;9.20;2.43;;;7.50;99.90;;;;;;484310;245;27834;-71
2024/04/10 07:45:31;;;;;;;5.30;2.50;;;7.70;99.90;;;;;;484313;245;27882;-72
2024/04/10 07:47:33;;;;;;;6.20;2.37;;;7.90;99.90;;;;;;484280;245;28013;-72
2024/04/10 07:49:34;;;;;;;9.83;2.40;;;8.00;99.90;;;;;;484322;245;27980;-72
2024/04/10 07:51:35;;;;;;;6.03;2.60;;;8.00;99.90;;;;;;484345;245;27940;-72
2024/04/10 07:53:36;;;;;;;10.63;2.83;;;8.20;99.90;;;;;;484315;245;27924;-72
2024/04/10 07:55:38;;;;;;;5.20;2.27;;;8.30;99.90;;;;;;484307;245;28408;-72
2024/04/10 07:57:39;;;;;;;13.60;2.77;;;8.50;99.90;;;;;;484317;245;28982;-71
2024/04/10 07:59:40;;;;;;;3.83;2.00;;;8.60;99.90;;;;;;484356;245;28401;-71
2024/04/10 08:01:42;;;;;;;7.40;2.43;;;8.80;99.60;;;;;;484343;245;28455;-72
2024/04/10 08:03:43;;;;;;;9.30;2.53;;;9.00;99.50;;;;;;484239;245;28144;-71
2024/04/10 08:05:44;;;;;;;7.67;2.30;;;9.40;99.00;;;;;;484296;245;27887;-74
2024/04/10 08:07:45;;;;;;;6.77;2.73;;;9.50;98.10;;;;;;484352;245;27992;-70
2024/04/10 08:09:46;;;;;;;7.97;2.83;;;9.30;98.10;;;;;;484379;245;27725;-71
2024/04/10 08:11:48;;;;;;;6.33;2.30;;;9.20;98.40;;;;;;484344;245;27896;-72
2024/04/10 08:13:49;;;;;;;8.70;2.70;;;9.20;98.30;;;;;;484336;245;28042;-71
2024/04/10 08:15:50;;;;;;;9.20;2.20;;;9.10;98.50;;;;;;484270;245;27973;-71
2024/04/10 08:17:51;;;;;;;6.60;2.47;;;9.10;98.70;;;;;;484349;245;27533;-72
2024/04/10 08:19:55;;;;;;;10.70;2.43;;;9.20;98.60;;;;;;484332;245;27836;-72
2024/04/10 08:21:57;;;;;;;10.27;2.87;;;9.30;98.10;;;;;;484327;245;27952;-71
2024/04/10 08:23:58;;;;;;;8.50;2.40;;;9.30;98.40;;;;;;484316;245;27978;-71
2024/04/10 08:25:59;;;;;;;5.20;2.40;;;9.50;98.50;;;;;;484248;245;27816;-70
2024/04/10 08:28:00;;;;;;;8.77;2.97;;;9.60;98.40;;;;;;484321;245;27944;-74
2024/04/10 08:30:02;;;;;;;8.37;2.67;;;9.80;98.40;;;;;;484330;245;28428;-71
2024/04/10 08:32:03;;;;;;;7.13;2.47;;;9.70;97.10;;;;;;484285;245;28291;-72
2024/04/10 08:34:04;;;;;;;5.50;2.57;;;9.50;97.30;;;;;;484287;245;28487;-71
2024/04/10 08:36:06;;;;;;;6.03;2.50;;;9.70;97.50;;;;;;484282;245;28120;-72
2024/04/10 08:38:07;;;;;;;12.97;2.40;;;9.90;97.00;;;;;;484276;245;27863;-71
2024/04/10 08:40:08;;;;;;;4.40;2.13;;;9.90;96.50;;;;;;484327;245;28265;-74
2024/04/10 08:42:09;;;;;;;5.77;2.60;;;10.00;96.90;;;;;;484288;245;27707;-73
2024/04/10 08:44:11;;;;;;;10.27;2.60;;;10.10;96.20;;;;;;484311;245;28091;-72
2024/04/10 08:46:12;;;;;;;9.73;3.23;;;10.10;96.30;;;;;;484288;245;28224;-72
2024/04/10 08:48:13;;;;;;;9.90;2.63;;;10.10;97.10;;;;;;484351;245;28292;-72
2024/04/10 08:50:14;;;;;;;5.37;2.43;;;10.30;96.70;;;;;;484314;245;28285;-73
2024/04/10 08:52:15;;;;;;;6.63;2.37;;;10.40;96.00;;;;;;484274;245;28262;-72
2024/04/10 08:54:17;;;;;;;6.57;2.90;;;10.40;95.30;;;;;;484286;245;28298;-72
2024/04/10 08:56:18;;;;;;;8.20;2.70;;;10.10;94.40;;;;;;484309;245;28827;-72
2024/04/10 08:58:19;;;;;;;7.30;2.60;;;9.90;95.50;;;;;;484313;245;28451;-70
2024/04/10 09:00:20;;;;;;;6.07;2.77;;;9.80;94.80;;;;;;484280;245;28723;-71
2024/04/10 09:02:22;;;;;;;6.27;2.50;;;9.80;94.20;;;;;;484288;245;28686;-70
2024/04/10 09:04:24;;;;;;;6.23;2.70;;;9.80;94.20;;;;;;484352;245;28255;-70
2024/04/10 09:06:24;;;;;;;4.60;2.30;;;9.70;94.10;;;;;;484233;245;28234;-73
2024/04/10 09:08:25;;;;;;;11.10;2.90;;;9.70;94.80;;;;;;484307;245;28118;-70
2024/04/10 09:10:27;;;;;;;3.77;1.90;;;9.50;94.40;;;;;;484282;245;28262;-72
2024/04/10 09:12:28;;;;;;;6.23;2.53;;;9.50;94.40;;;;;;484285;245;28158;-71
2024/04/10 09:14:30;;;;;;;6.43;2.93;;;9.50;94.50;;;;;;484320;245;28087;-71
2024/04/10 09:16:30;;;;;;;12.63;2.67;;;9.50;94.20;;;;;;484274;245;28208;-73
2024/04/10 09:18:32;;;;;;;8.63;3.10;;;9.70;94.90;;;;;;484298;245;28155;-72
2024/04/10 09:20:33;;;;;;;6.40;2.50;;;10.00;96.00;;;;;;484272;245;27998;-74
2024/04/10 09:22:34;;;;;;;7.60;3.13;;;10.20;95.40;;;;;;484306;245;27929;-73
2024/04/10 09:24:35;;;;;;;8.13;2.07;;;10.20;93.50;;;;;;484337;245;28228;-73
2024/04/10 09:26:37;;;;;;;7.63;2.10;;;10.10;93.40;;;;;;484295;245;28954;-74
2024/04/10 09:28:38;;;;;;;5.93;2.30;;;10.00;92.30;;;;;;484318;245;28590;-72
2024/04/10 09:30:39;;;;;;;10.63;3.13;;;9.80;92.60;;;;;;484244;245;28660;-73
2024/04/10 09:32:40;;;;;;;3.10;2.03;;;9.80;92.70;;;;;;484289;245;28614;-74
2024/04/10 09:34:42;;;;;;;5.20;2.33;;;9.80;91.20;;;;;;484304;245;27937;-70
2024/04/10 09:36:44;;;;;;;6.20;2.10;;;9.80;90.80;;;;;;484285;245;27892;-72
2024/04/10 09:38:44;;;;;;;4.00;2.23;;;9.80;90.60;;;;;;484190;245;27970;-72
2024/04/10 09:40:45;;;;;;;9.57;2.43;;;9.70;90.40;;;;;;484292;245;28170;-71
2024/04/10 09:42:47;;;;;;;12.50;2.53;;;9.80;91.50;;;;;;484313;245;27991;-73
2024/04/10 09:44:48;;;;;;;6.03;2.13;;;9.90;91.40;;;;;;484310;245;27947;-71
2024/04/10 09:46:49;;;;;;;7.90;2.33;;;10.10;90.10;;;;;;484240;245;28158;-72
2024/04/10 09:48:50;;;;;;;8.60;2.30;;;10.40;90.20;;;;;;484244;245;28080;-73
2024/04/10 09:50:52;;;;;;;6.10;2.50;;;10.60;89.10;;;;;;484325;245;28045;-72
2024/04/10 09:52:53;;;;;;;8.60;2.20;;;10.80;88.50;;;;;;484304;245;28149;-74
2024/04/10 09:54:54;;;;;;;3.10;1.70;;;11.00;88.30;;;;;;484298;245;28292;-73
2024/04/10 09:56:56;;;;;;;5.13;2.30;;;11.30;88.30;;;;;;484285;245;28656;-72
2024/04/10 09:58:57;;;;;;;5.90;2.33;;;11.60;86.20;;;;;;484310;245;28795;-71
2024/04/10 10:00:58;;;;;;;8.43;2.77;;;11.70;87.30;;;;;;484315;245;28680;-71
2024/04/10 10:02:59;;;;;;;5.87;2.57;;;11.90;90.10;;;;;;484290;245;28551;-72
2024/04/10 10:05:00;;;;;;;5.23;2.10;;;11.90;90.10;;;;;;484258;245;28292;-70
2024/04/10 10:07:03;;;;;;;3.60;2.10;;;;;;;;;;484263;245;28090;-73
2024/04/10 10:09:06;;;;;;;5.50;1.90;;;11.40;90.40;;;;;;484303;245;26984;-71
2024/04/10 10:11:05;;;;;;;9.50;2.90;;;11.40;89.70;;;;;;484178;245;28699;-73
2024/04/10 10:13:08;;;;;;;8.10;2.03;;;;;;;;;;484258;245;28539;-73
2024/04/10 10:15:10;;;;;;;8.83;2.20;;;;;;;;;;484307;245;27419;-71
2024/04/10 10:17:11;;;;;;;5.83;1.87;;;10.90;88.70;;;;;;484294;245;27214;-72
2024/04/10 10:19:13;;;;;;;4.33;1.93;;;11.00;90.20;;;;;;484302;245;28481;-71
2024/04/10 10:21:14;;;;;;;6.27;1.87;;;11.00;88.10;;;;;;484350;245;28776;-72
2024/04/10 10:23:16;;;;;;;4.20;1.77;;;11.10;88.40;;;;;;484327;245;28829;-74
2024/04/10 10:25:16;;;;;;;6.10;1.90;;;11.10;88.40;;;;;;484304;245;28640;-73
2024/04/10 10:27:18;;;;;;;6.27;2.20;;;11.10;88.90;;;;;;484295;245;28628;-71
2024/04/10 10:29:19;;;;;;;4.20;1.97;;;11.20;89.10;;;;;;484271;245;28150;-72
2024/04/10 10:31:21;;;;;;;5.13;1.80;;;11.20;86.50;;;;;;484338;245;28514;-70
2024/04/10 10:33:21;;;;;;;3.40;1.83;;;11.20;86.00;;;;;;484276;245;28411;-72
2024/04/10 10:35:23;;;;;;;5.30;2.10;;;11.10;86.30;;;;;;484312;245;28801;-73
2024/04/10 10:37:24;;;;;;;7.17;2.23;;;11.00;84.40;;;;;;484303;245;28664;-71
2024/04/10 10:39:27;;;;;;;7.23;2.17;;;10.90;87.00;;;;;;484343;245;28821;-74